Time;durP1;ratioP1;P1;durP2;ratioP2;P2;SDS_P1;SDS_P2;PMS_P1;PMS_P2;Temp;Humidity;BMP_temperature;BMP_pressure;BME280_temperature;BME280_humidity;BME280_pressure;Samples;Min_cycle;Max_cycle;Signal;HPM_P1;HPM_P2
2022/05/31 00:00:26;;;;;;;1.90;1.80;;;15.30;54.50;;;-142.21;80.46;112049.66;5080721;28;20452;-71
2022/05/31 00:02:56;;;;;;;1.80;1.70;;;15.30;54.50;;;-142.21;80.75;112049.66;5088111;28;20451;-71
2022/05/31 00:05:25;;;;;;;2.20;2.00;;;15.20;54.70;;;-142.21;80.98;112049.66;5072156;28;20528;-71
2022/05/31 00:07:53;;;;;;;2.00;1.80;;;15.20;54.90;;;-142.21;81.68;112049.66;5087131;28;20764;-71
2022/05/31 00:10:24;;;;;;;1.90;1.60;;;15.20;54.80;;;-142.21;81.64;112049.66;5083324;28;20822;-71
2022/05/31 00:12:52;;;;;;;2.83;1.73;;;15.20;55.00;;;-142.21;81.52;112049.66;5073207;28;20447;-71
2022/05/31 00:15:24;;;;;;;1.50;1.40;;;15.20;54.90;;;-142.21;81.98;112049.66;5092712;28;20635;-71
2022/05/31 00:17:52;;;;;;;1.80;1.70;;;15.20;55.10;;;-142.21;81.99;112049.66;5080308;28;21006;-70
2022/05/31 00:20:20;;;;;;;1.50;1.40;;;15.10;54.90;;;-142.21;82.13;112049.66;5086216;28;20442;-71
2022/05/31 00:22:49;;;;;;;2.20;1.90;;;15.10;55.10;;;-142.21;82.75;112049.66;5087379;28;20446;-71
2022/05/31 00:25:17;;;;;;;1.63;1.53;;;15.10;55.30;;;-142.21;82.56;112049.66;5091835;28;20448;-71
2022/05/31 00:27:45;;;;;;;1.70;1.60;;;15.00;55.20;;;-142.21;82.56;112049.66;5081247;28;21108;-71
2022/05/31 00:30:15;;;;;;;2.10;1.83;;;15.00;55.30;;;-142.21;82.78;112049.66;5072081;28;20453;-71
2022/05/31 00:32:50;;;;;;;2.07;1.67;;;15.00;55.50;;;-142.21;82.96;112049.66;5080940;28;20534;-71
2022/05/31 00:35:36;;;;;;;1.73;1.63;;;15.00;55.70;;;-142.21;83.42;112049.66;5089710;28;20438;-71
2022/05/31 00:38:04;;;;;;;1.80;1.70;;;14.90;56.00;;;-142.21;84.18;112049.66;5090191;28;20471;-71
2022/05/31 00:40:35;;;;;;;2.10;1.90;;;14.90;55.90;;;-142.21;84.68;112049.66;5080078;28;20447;-71
2022/05/31 00:43:10;;;;;;;1.60;1.50;;;14.90;55.90;;;-142.21;84.44;112049.66;5072207;28;20554;-71
2022/05/31 00:45:44;;;;;;;4.10;1.80;;;14.90;55.90;;;-142.21;85.61;112049.66;5073184;28;20496;-71
2022/05/31 00:48:20;;;;;;;2.20;1.90;;;14.90;56.10;;;-142.21;85.28;112049.66;5087058;28;20434;-71
2022/05/31 00:50:54;;;;;;;2.00;1.83;;;14.80;56.10;;;-142.21;85.67;112049.66;5086378;28;20426;-71
2022/05/31 00:53:27;;;;;;;3.20;1.80;;;14.70;56.80;;;-142.21;85.44;112049.66;5088444;28;20912;-71
2022/05/31 00:56:03;;;;;;;1.83;1.73;;;14.80;56.30;;;-142.21;86.10;112049.66;5089569;28;20442;-71
2022/05/31 00:58:35;;;;;;;1.97;1.87;;;14.70;56.40;;;-142.21;86.14;112049.66;5086129;28;20565;-71
2022/05/31 01:01:07;;;;;;;2.00;1.70;;;14.70;56.30;;;-142.21;86.09;112049.66;5088014;28;20907;-71
2022/05/31 01:03:42;;;;;;;2.00;1.80;;;14.70;56.30;;;-142.21;86.64;112049.66;5065242;28;20461;-71
2022/05/31 01:06:11;;;;;;;1.90;1.80;;;14.70;56.40;;;-142.21;86.54;112049.66;5083044;28;20875;-71
2022/05/31 01:08:41;;;;;;;1.90;1.70;;;14.60;56.40;;;-142.21;87.36;112049.66;5087676;28;20961;-71
2022/05/31 01:11:10;;;;;;;2.27;1.90;;;14.50;56.70;;;-142.21;87.22;112049.66;5074504;28;20444;-71
2022/05/31 01:13:37;;;;;;;1.53;1.43;;;14.50;56.60;;;-142.21;87.86;112049.66;5074602;28;20451;-71
2022/05/31 01:16:09;;;;;;;1.93;1.77;;;14.40;56.60;;;-142.21;88.08;112049.66;5072611;28;20450;-71
2022/05/31 01:18:39;;;;;;;1.83;1.73;;;14.40;57.00;;;-142.21;88.63;112049.66;5071756;28;20478;-71
2022/05/31 01:21:12;;;;;;;2.33;1.90;;;14.30;57.00;;;-142.21;88.89;112049.66;5077006;28;20482;-71
2022/05/31 01:23:47;;;;;;;1.80;1.70;;;14.30;57.20;;;-142.21;88.28;112049.66;5087373;28;20995;-70
2022/05/31 01:26:28;;;;;;;2.50;1.73;;;14.30;57.20;;;-142.21;88.31;112049.66;5072449;28;20470;-71
2022/05/31 01:29:06;;;;;;;1.90;1.80;;;14.30;57.30;;;-142.21;88.68;112049.66;5071581;28;20467;-72
2022/05/31 01:31:45;;;;;;;2.30;1.90;;;14.30;57.60;;;-142.21;88.78;112049.66;5075794;28;20534;-71
2022/05/31 01:34:23;;;;;;;1.93;1.83;;;14.30;57.40;;;-142.21;88.80;112049.66;5072118;28;20780;-71
2022/05/31 01:36:55;;;;;;;2.00;1.90;;;14.30;57.60;;;-142.21;88.30;112049.66;5070786;28;20868;-71
2022/05/31 01:39:38;;;;;;;1.90;1.67;;;14.30;57.50;;;-142.21;89.05;112049.66;5088197;28;20626;-71
2022/05/31 01:42:15;;;;;;;2.03;1.83;;;14.40;57.80;;;-142.21;88.75;112049.66;5075082;28;20440;-70
2022/05/31 01:44:48;;;;;;;2.30;1.90;;;14.30;57.60;;;-142.21;89.06;112049.66;5074862;28;20434;-71
2022/05/31 01:47:16;;;;;;;1.93;1.80;;;14.40;57.70;;;-142.21;89.04;112049.66;5090457;28;20923;-71
2022/05/31 01:49:51;;;;;;;1.80;1.70;;;14.40;57.70;;;-142.21;88.96;112049.66;5074740;28;20950;-71
2022/05/31 01:52:21;;;;;;;1.90;1.80;;;14.40;57.70;;;-142.21;89.29;112049.66;5076672;28;20470;-71
2022/05/31 01:54:50;;;;;;;1.93;1.77;;;14.40;57.90;;;-142.21;90.58;112049.66;5082479;28;20435;-71
2022/05/31 01:57:20;;;;;;;2.10;1.90;;;14.40;58.10;;;-142.21;90.71;112049.66;5075346;28;20556;-71
2022/05/31 01:59:52;;;;;;;2.00;1.90;;;14.40;58.10;;;-142.21;89.74;112049.66;5095308;28;20499;-71
2022/05/31 02:02:21;;;;;;;2.30;2.10;;;14.40;57.90;;;-142.21;90.31;112049.66;5081027;28;20439;-71
2022/05/31 02:04:49;;;;;;;1.70;1.60;;;14.40;57.90;;;-142.21;89.99;112049.66;5075372;28;20506;-72
2022/05/31 02:07:21;;;;;;;1.97;1.77;;;14.40;57.80;;;-142.21;90.06;112049.66;5093861;28;20828;-71
2022/05/31 02:09:53;;;;;;;1.87;1.77;;;14.40;57.80;;;-142.21;90.28;112049.66;5085498;28;20443;-71
2022/05/31 02:12:23;;;;;;;3.53;2.07;;;14.40;57.90;;;-142.21;89.59;112049.66;5083281;28;20438;-71
2022/05/31 02:14:50;;;;;;;2.33;1.90;;;14.40;57.90;;;-142.21;90.35;112049.66;5086752;28;20446;-70
2022/05/31 02:17:18;;;;;;;3.30;2.07;;;14.40;57.80;;;-142.21;89.97;112049.66;5086442;28;20567;-71
2022/05/31 02:19:46;;;;;;;1.80;1.70;;;14.30;57.90;;;-142.21;90.39;112049.66;5086301;28;20466;-71
2022/05/31 02:22:16;;;;;;;2.10;1.80;;;14.30;58.20;;;-142.21;90.14;112049.66;5089341;28;21446;-71
2022/05/31 02:24:45;;;;;;;2.43;2.10;;;14.30;58.20;;;-142.21;90.64;112049.66;5083414;28;20430;-71
2022/05/31 02:27:14;;;;;;;2.47;1.80;;;14.30;58.10;;;-142.21;90.72;112049.66;5094877;28;20438;-71
2022/05/31 02:29:42;;;;;;;1.80;1.70;;;14.20;58.10;;;-142.21;90.77;112049.66;5081328;28;20769;-71
2022/05/31 02:32:14;;;;;;;2.17;1.97;;;14.20;58.30;;;-142.21;90.96;112049.66;5094336;28;20523;-71
2022/05/31 02:34:44;;;;;;;3.40;1.80;;;14.20;58.50;;;-142.21;91.31;112049.66;5078253;28;20546;-71
2022/05/31 02:37:12;;;;;;;2.00;1.90;;;14.20;58.50;;;-142.21;91.41;112049.66;5090311;28;20807;-72
2022/05/31 02:39:40;;;;;;;1.70;1.60;;;14.20;58.50;;;-142.21;91.62;112049.66;5078810;28;20478;-72
2022/05/31 02:42:10;;;;;;;2.50;2.00;;;14.20;58.50;;;-142.21;91.45;112049.66;5076636;28;20596;-71
2022/05/31 02:44:38;;;;;;;1.70;1.50;;;14.20;58.60;;;-142.21;91.53;112049.66;5074637;28;20467;-72
2022/05/31 02:47:07;;;;;;;2.27;1.83;;;14.20;58.50;;;-142.21;90.58;112049.66;5081763;28;20483;-71
2022/05/31 02:49:35;;;;;;;3.30;1.97;;;14.20;58.40;;;-142.21;90.57;112049.66;5089731;28;20454;-71
2022/05/31 02:52:03;;;;;;;2.40;2.20;;;14.20;58.20;;;-142.21;90.55;112049.66;5093459;28;20454;-72
2022/05/31 02:54:30;;;;;;;2.40;1.90;;;14.20;58.30;;;-142.21;90.17;112049.66;5088692;28;20538;-71
2022/05/31 02:56:57;;;;;;;1.87;1.77;;;14.20;58.10;;;-142.21;91.07;112049.66;5092007;28;20454;-70
2022/05/31 02:59:26;;;;;;;2.17;1.70;;;14.20;59.00;;;-142.21;91.54;112049.66;5084693;28;20998;-71
2022/05/31 03:01:53;;;;;;;2.00;1.90;;;14.20;58.50;;;-142.21;91.36;112049.66;5087468;28;20470;-72
2022/05/31 03:04:22;;;;;;;3.57;2.10;;;14.20;58.60;;;-142.21;91.22;112049.66;5088590;28;20529;-72
2022/05/31 03:06:49;;;;;;;2.17;1.97;;;14.20;58.50;;;-142.21;90.97;112049.66;5093276;28;20437;-72
2022/05/31 03:09:17;;;;;;;1.97;1.77;;;14.20;58.40;;;-142.21;91.09;112049.66;5081727;28;20482;-71
2022/05/31 03:11:51;;;;;;;2.83;2.10;;;14.20;58.30;;;-142.21;91.60;112049.66;5085941;28;20443;-71
2022/05/31 03:14:26;;;;;;;3.57;1.73;;;14.10;58.60;;;-142.21;91.56;112049.66;5085808;28;20441;-71
2022/05/31 03:17:02;;;;;;;2.20;2.00;;;14.10;58.50;;;-142.21;92.11;112049.66;5080002;28;20534;-71
2022/05/31 03:19:39;;;;;;;3.10;2.00;;;14.10;59.40;;;-142.21;91.62;112049.66;5074608;28;20906;-71
2022/05/31 03:22:15;;;;;;;2.20;2.00;;;14.10;58.70;;;-142.21;92.27;112049.66;5074553;28;20443;-71
2022/05/31 03:24:49;;;;;;;2.53;1.77;;;14.10;58.80;;;-142.21;91.91;112049.66;5084089;28;20881;-71
2022/05/31 03:27:17;;;;;;;2.30;2.10;;;14.00;58.80;;;-142.21;91.17;112049.66;5084623;28;20435;-71
2022/05/31 03:29:50;;;;;;;1.83;1.73;;;14.00;58.60;;;-142.21;91.99;112049.66;5091241;28;20525;-71
2022/05/31 03:32:18;;;;;;;2.37;2.17;;;14.00;59.00;;;-142.21;91.56;112049.66;5080250;28;20450;-71
2022/05/31 03:34:45;;;;;;;3.00;2.20;;;14.00;58.90;;;-142.21;91.66;112049.66;5091924;28;20454;-71
2022/05/31 03:37:12;;;;;;;2.27;1.70;;;13.90;58.80;;;-142.21;91.75;112049.66;5075791;28;20454;-71
2022/05/31 03:39:39;;;;;;;2.10;1.90;;;13.90;59.00;;;-142.21;91.94;112049.66;5084887;28;20534;-71
2022/05/31 03:42:08;;;;;;;2.60;1.80;;;14.00;59.00;;;-142.21;92.10;112049.66;5062552;28;20539;-71
2022/05/31 03:44:35;;;;;;;2.10;1.90;;;14.00;59.30;;;-142.21;92.50;112049.66;5092654;28;20452;-71
2022/05/31 03:47:05;;;;;;;1.90;1.73;;;14.00;59.20;;;-142.21;92.95;112049.66;5089042;28;20624;-71
2022/05/31 03:49:35;;;;;;;1.70;1.60;;;13.90;59.50;;;-142.21;93.78;112049.66;5078659;28;20529;-71
2022/05/31 03:52:03;;;;;;;2.80;1.87;;;13.90;59.40;;;-142.21;94.19;112049.66;5084812;28;20447;-71
2022/05/31 03:54:31;;;;;;;1.90;1.80;;;14.00;59.60;;;-142.21;94.85;112049.66;5073236;28;20477;-72
2022/05/31 03:56:58;;;;;;;2.60;1.90;;;13.90;59.70;;;-142.21;94.99;112049.66;5089112;28;20443;-71
2022/05/31 03:59:26;;;;;;;2.57;2.03;;;13.90;59.70;;;-142.21;94.98;112049.66;5087475;28;20570;-71
2022/05/31 04:01:54;;;;;;;1.90;1.80;;;13.90;59.70;;;-142.21;95.11;112049.66;5072900;28;20534;-71
2022/05/31 04:04:23;;;;;;;3.03;1.70;;;13.90;59.70;;;-142.21;94.73;112049.66;5073188;28;20508;-71
2022/05/31 04:06:50;;;;;;;1.80;1.70;;;13.90;59.90;;;-142.21;93.95;112049.66;5082487;28;20443;-71
2022/05/31 04:09:17;;;;;;;2.20;2.00;;;13.80;59.70;;;-142.21;93.52;112049.66;5078401;28;20522;-71
2022/05/31 04:11:44;;;;;;;2.43;1.90;;;13.90;59.50;;;-142.21;93.76;112049.66;5086237;28;20446;-71
2022/05/31 04:14:11;;;;;;;2.77;2.27;;;13.90;59.30;;;-142.21;93.23;112049.66;5079165;28;20554;-71
2022/05/31 04:16:39;;;;;;;3.07;2.17;;;13.90;59.30;;;-142.21;92.68;112049.66;5078292;28;20439;-71
2022/05/31 04:19:06;;;;;;;2.87;1.83;;;14.00;59.40;;;-142.21;93.77;112049.66;5071793;28;20511;-72
2022/05/31 04:21:34;;;;;;;4.53;2.10;;;14.00;59.70;;;-142.21;93.88;112049.66;5075556;28;20530;-72
2022/05/31 04:24:08;;;;;;;2.30;2.10;;;14.10;60.00;;;-142.21;94.53;112049.66;5072038;28;20862;-69
2022/05/31 04:26:41;;;;;;;2.00;1.87;;;14.10;59.80;;;-142.21;94.27;112049.66;5072850;28;20438;-72
2022/05/31 04:29:08;;;;;;;2.00;1.90;;;14.20;59.90;;;-142.21;94.34;112049.66;5079611;28;20459;-72
2022/05/31 04:31:36;;;;;;;2.53;1.83;;;14.20;59.90;;;-142.21;95.05;112049.66;5073062;28;20533;-70
2022/05/31 04:34:04;;;;;;;2.07;1.97;;;14.20;60.10;;;-142.21;94.39;112049.66;5089857;28;20497;-71
2022/05/31 04:36:32;;;;;;;2.30;2.10;;;14.20;60.00;;;-142.21;94.10;112049.66;5092895;28;20450;-71
2022/05/31 04:39:01;;;;;;;2.33;2.10;;;14.20;59.60;;;-142.21;93.17;112049.66;5078637;28;20473;-72
2022/05/31 04:41:31;;;;;;;2.33;1.83;;;14.30;59.60;;;-142.21;94.03;112049.66;5088089;28;20535;-71
2022/05/31 04:44:02;;;;;;;3.23;2.47;;;14.30;60.20;;;-142.21;95.00;112049.66;5073374;28;20482;-72
2022/05/31 04:46:32;;;;;;;4.83;2.80;;;14.40;60.50;;;-142.21;95.20;112049.66;5076979;28;20464;-71
2022/05/31 04:49:02;;;;;;;3.53;2.33;;;14.40;60.40;;;-142.21;95.05;112049.66;5074255;28;20440;-71
2022/05/31 04:51:32;;;;;;;6.07;2.53;;;14.50;60.40;;;-142.21;97.21;112049.66;5092370;28;20448;-71
2022/05/31 04:54:01;;;;;;;9.63;3.90;;;14.50;60.30;;;-142.21;95.89;112049.66;5078229;28;20950;-71
2022/05/31 04:56:28;;;;;;;15.60;5.57;;;14.60;60.70;;;-142.21;96.82;112049.66;5072303;28;21023;-71
2022/05/31 04:58:55;;;;;;;9.63;4.27;;;14.60;60.70;;;-142.21;96.50;112049.66;5074708;28;20515;-72
2022/05/31 05:01:24;;;;;;;6.87;2.80;;;14.70;61.10;;;-142.21;94.57;112049.66;5073993;28;20872;-72
2022/05/31 05:03:52;;;;;;;2.53;2.10;;;14.70;60.40;;;-142.21;94.53;112049.66;5080998;28;20796;-72
2022/05/31 05:06:21;;;;;;;2.20;2.00;;;14.80;60.20;;;-142.21;93.40;112049.66;5071315;28;20562;-73
2022/05/31 05:08:50;;;;;;;3.43;2.00;;;14.90;59.90;;;-142.21;91.76;112049.66;5073153;28;20465;-72
2022/05/31 05:11:22;;;;;;;3.13;2.70;;;14.90;59.30;;;-142.21;91.02;112049.66;5080791;28;20443;-72
2022/05/31 05:13:50;;;;;;;2.73;2.10;;;15.00;59.00;;;-142.21;90.35;112049.66;5077119;28;20439;-73
2022/05/31 05:16:21;;;;;;;2.13;1.90;;;15.10;58.50;;;-142.21;90.56;112049.66;5070929;28;20497;-73
2022/05/31 05:18:48;;;;;;;2.60;1.90;;;15.20;58.70;;;-142.21;90.91;112049.66;5073103;28;20476;-72
2022/05/31 05:21:17;;;;;;;3.90;1.93;;;15.20;58.90;;;-142.21;91.48;112049.66;5089563;28;20485;-73
2022/05/31 05:23:45;;;;;;;2.63;2.13;;;15.30;58.70;;;-142.21;92.47;112049.66;5087220;28;20526;-72
2022/05/31 05:26:13;;;;;;;3.17;2.40;;;15.40;59.20;;;-142.21;91.50;112049.66;5075542;28;20464;-71
2022/05/31 05:31:30;;;;;;;3.40;2.20;;;15.60;58.50;;;-142.21;89.57;112049.66;5095320;28;20508;-71
2022/05/31 05:34:01;;;;;;;2.10;1.93;;;15.70;58.10;;;-142.21;88.45;112049.66;5089330;28;20455;-71
2022/05/31 05:36:28;;;;;;;1.93;1.70;;;15.80;57.90;;;-142.21;88.23;112049.66;5074897;28;20443;-71
2022/05/31 05:38:57;;;;;;;3.50;2.20;;;15.90;57.60;;;-142.21;87.26;112049.66;5092762;28;20474;-71
2022/05/31 05:41:28;;;;;;;2.10;2.00;;;16.00;57.20;;;-142.21;88.39;112049.66;5089835;28;20489;-71
2022/05/31 05:43:57;;;;;;;1.97;1.80;;;16.20;58.20;;;-142.21;87.04;112049.66;5086063;28;20454;-72
2022/05/31 05:46:28;;;;;;;2.13;1.80;;;16.20;57.00;;;-142.21;86.12;112049.66;5087449;28;20485;-72
2022/05/31 05:48:56;;;;;;;2.17;1.80;;;16.40;57.00;;;-142.21;87.35;112049.66;5078293;28;20435;-72
2022/05/31 05:51:26;;;;;;;3.53;2.10;;;16.40;57.00;;;-142.21;86.81;112049.66;5082863;28;20935;-72
2022/05/31 05:53:54;;;;;;;2.33;1.90;;;16.60;57.10;;;-142.21;87.47;112049.66;5078183;28;20431;-72
2022/05/31 05:56:23;;;;;;;3.80;2.47;;;16.60;57.60;;;-142.21;87.25;112049.66;5074503;28;20450;-71
2022/05/31 05:58:51;;;;;;;2.53;1.97;;;16.80;57.20;;;-142.21;86.82;112049.66;5074637;28;20518;-71
2022/05/31 06:01:36;;;;;;;2.20;1.87;;;16.90;56.80;;;-142.21;84.44;112049.66;5074502;28;20831;-71
2022/05/31 06:04:11;;;;;;;2.40;1.90;;;16.90;56.40;;;-142.21;81.67;112049.66;5074286;28;20459;-71
2022/05/31 06:06:42;;;;;;;4.07;2.10;;;17.00;55.50;;;-142.21;78.70;112049.66;5074607;28;20534;-71
2022/05/31 06:09:16;;;;;;;3.97;2.17;;;17.10;54.40;;;-142.21;80.26;112049.66;5074540;28;20514;-70
2022/05/31 06:11:49;;;;;;;2.17;1.97;;;17.20;54.60;;;-142.21;82.13;112049.66;5087246;28;20517;-72
2022/05/31 06:14:23;;;;;;;2.10;1.90;;;17.30;55.00;;;-142.21;81.77;112049.66;5094722;28;20419;-72
2022/05/31 06:16:59;;;;;;;3.23;2.00;;;17.40;55.10;;;-142.21;81.69;112049.66;5095318;28;20437;-72
2022/05/31 06:19:35;;;;;;;2.20;2.00;;;17.40;55.00;;;-142.21;79.69;112049.66;5094699;28;20564;-71
2022/05/31 06:22:06;;;;;;;3.10;1.80;;;17.50;54.60;;;-142.21;77.89;112049.66;5095217;28;20430;-72
2022/05/31 06:24:36;;;;;;;2.47;1.73;;;17.60;53.70;;;-142.21;82.06;112049.66;5086472;28;20473;-72
2022/05/31 06:27:04;;;;;;;4.63;2.50;;;17.60;55.30;;;-142.21;82.26;112049.66;5074869;28;20510;-72
2022/05/31 06:29:31;;;;;;;2.33;2.10;;;17.70;55.00;;;-142.21;80.31;112049.66;5074033;28;20827;-71
2022/05/31 06:32:00;;;;;;;2.73;2.07;;;17.80;54.30;;;-142.21;80.93;112049.66;5074642;28;20448;-71
2022/05/31 06:34:27;;;;;;;2.33;2.00;;;17.80;54.50;;;-142.21;80.89;112049.66;5074174;28;20534;-72
2022/05/31 06:37:04;;;;;;;2.13;1.87;;;17.90;54.40;;;-142.21;75.24;112049.66;5074566;28;20492;-71
2022/05/31 06:39:34;;;;;;;3.63;2.20;;;17.90;53.30;;;-142.21;75.15;112049.66;5073713;28;20847;-71
2022/05/31 06:42:04;;;;;;;2.27;1.93;;;18.00;52.90;;;-142.21;80.17;112049.66;5074606;28;20530;-71
2022/05/31 06:44:33;;;;;;;2.20;1.70;;;18.20;54.30;;;-142.21;80.83;112049.66;5073681;28;20447;-71
2022/05/31 06:47:02;;;;;;;6.47;3.43;;;18.10;54.60;;;-142.21;80.87;112049.66;5074330;28;20453;-71
2022/05/31 06:49:32;;;;;;;1.97;1.80;;;18.10;54.40;;;-142.21;78.47;112049.66;5073529;28;20501;-72
2022/05/31 06:57:47;;;;;;;2.50;1.77;;;18.40;53.80;;;-142.21;76.38;112049.66;5011851;28;20541;-72
2022/05/31 07:00:18;;;;;;;1.90;1.73;;;18.40;53.20;;;-142.21;77.26;112049.66;5035986;28;20484;-71
2022/05/31 07:02:48;;;;;;;2.37;2.13;;;18.50;53.50;;;-142.21;74.20;112049.66;5053930;28;20476;-72
2022/05/31 07:05:18;;;;;;;2.87;2.10;;;18.60;52.80;;;-142.21;73.39;112049.66;5052951;28;20571;-71
2022/05/31 07:07:46;;;;;;;2.33;2.13;;;18.70;52.40;;;-142.21;73.10;112049.66;5053881;28;20441;-71
2022/05/31 07:10:14;;;;;;;2.33;1.80;;;18.70;52.50;;;-142.21;65.65;112049.66;5028092;28;20748;-71
2022/05/31 07:12:43;;;;;;;1.93;1.73;;;18.70;50.70;;;-142.21;67.43;112049.66;5053706;28;20874;-71
2022/05/31 07:15:11;;;;;;;2.03;1.87;;;18.60;51.10;;;-142.21;71.86;112049.66;5053280;28;20537;-71
2022/05/31 07:17:39;;;;;;;5.47;2.10;;;18.50;52.10;;;-142.21;73.56;112049.66;5053786;28;20444;-71
2022/05/31 07:20:10;;;;;;;5.13;2.30;;;18.60;52.50;;;-142.21;68.83;112049.66;5053548;28;20610;-71
2022/05/31 07:22:39;;;;;;;2.23;1.70;;;18.60;51.30;;;-142.21;65.75;112049.66;5053349;28;20510;-72
2022/05/31 07:25:08;;;;;;;2.50;1.70;;;18.60;50.80;;;-142.21;65.35;112049.66;5075341;28;20534;-71
2022/05/31 07:27:35;;;;;;;2.50;2.07;;;18.60;50.60;;;-142.21;66.24;112049.66;5073327;28;20482;-72
2022/05/31 07:30:04;;;;;;;1.80;1.70;;;18.70;50.80;;;-142.21;66.23;112049.66;5073648;28;20446;-72
2022/05/31 07:32:31;;;;;;;6.13;2.30;;;18.80;50.90;;;-142.21;68.73;112049.66;5072823;28;20212;-72
2022/05/31 07:34:58;;;;;;;2.43;1.90;;;18.90;51.50;;;-142.21;68.24;112049.66;5073412;28;20497;-71
2022/05/31 07:37:27;;;;;;;2.10;1.90;;;19.00;51.30;;;-142.21;67.14;112049.66;5072524;28;20255;-71
2022/05/31 07:39:54;;;;;;;1.93;1.83;;;19.10;50.90;;;-142.21;67.39;112049.66;5073408;28;20566;-72
2022/05/31 07:42:22;;;;;;;1.97;1.83;;;19.20;51.00;;;-142.21;66.46;112049.66;5072207;28;20471;-71
2022/05/31 07:44:53;;;;;;;1.63;1.53;;;19.20;50.80;;;-142.21;67.61;112049.66;5073333;28;20506;-72
2022/05/31 07:47:20;;;;;;;1.90;1.80;;;19.30;50.80;;;-142.21;69.90;112049.66;5072792;28;20459;-72
2022/05/31 07:49:48;;;;;;;2.67;1.80;;;19.30;51.40;;;-142.21;68.29;112049.66;5072545;28;20691;-71
2022/05/31 07:52:15;;;;;;;2.10;2.00;;;19.40;51.10;;;-142.21;66.29;112049.66;5072280;28;20447;-72
2022/05/31 07:54:44;;;;;;;2.67;1.90;;;19.40;50.50;;;-142.21;60.78;112049.66;5091909;28;20446;-72
2022/05/31 07:58:30;;;;;;;2.40;1.90;;;19.30;48.90;;;-142.21;62.38;112049.66;5092802;28;20215;-72
2022/05/31 07:59:58;;;;;;;2.13;1.93;;;19.40;49.70;;;-142.21;61.54;112049.66;5092959;28;20482;-72
2022/05/31 08:02:26;;;;;;;1.97;1.70;;;19.40;49.70;;;-142.21;62.37;112049.66;5092420;28;20220;-71
2022/05/31 08:04:53;;;;;;;2.30;1.90;;;19.40;50.20;;;-142.21;59.17;112049.66;5093052;28;20551;-72
2022/05/31 08:07:20;;;;;;;1.87;1.77;;;19.50;49.30;;;-142.21;57.10;112049.66;5092486;28;20837;-71
2022/05/31 08:09:49;;;;;;;2.33;1.60;;;19.60;48.50;;;-142.21;59.12;112049.66;5092744;28;20196;-71
2022/05/31 08:12:16;;;;;;;1.97;1.40;;;19.60;48.90;;;-142.21;60.26;112049.66;5092082;28;20261;-72
2022/05/31 08:14:46;;;;;;;1.70;1.50;;;19.80;49.30;;;-142.21;62.04;112049.66;5092721;28;20211;-72
2022/05/31 08:17:13;;;;;;;2.60;1.50;;;19.90;49.70;;;-142.21;65.15;112049.66;5092300;28;20210;-71
2022/05/31 08:19:40;;;;;;;2.13;1.93;;;20.10;51.10;;;-142.21;58.68;112049.66;5092649;28;20232;-72
2022/05/31 08:22:08;;;;;;;1.50;1.40;;;20.20;48.90;;;-142.21;55.78;112049.66;5092783;28;20215;-72
2022/05/31 08:24:35;;;;;;;3.27;1.70;;;20.20;48.10;;;-142.21;56.82;112049.66;5073765;28;20288;-71
2022/05/31 08:27:04;;;;;;;2.67;1.60;;;20.30;48.40;;;-142.21;56.56;112049.66;5072710;28;20569;-71
2022/05/31 08:29:32;;;;;;;2.03;1.60;;;20.50;48.40;;;-142.21;56.04;112049.66;5071846;28;20677;-72
2022/05/31 08:31:59;;;;;;;1.53;1.43;;;20.60;48.10;;;-142.21;61.14;112049.66;5072151;28;20324;-72
2022/05/31 08:34:28;;;;;;;2.43;1.53;;;20.70;49.50;;;-142.21;53.42;112049.66;5071607;28;20237;-71
2022/05/31 08:36:55;;;;;;;2.17;1.73;;;20.60;47.30;;;-142.21;53.72;112049.66;5072510;28;20597;-71
2022/05/31 08:39:23;;;;;;;1.93;1.40;;;20.40;47.50;;;-142.21;55.15;112049.66;5091450;28;20235;-71
2022/05/31 08:41:53;;;;;;;1.83;1.23;;;20.50;48.10;;;-142.21;55.23;112049.66;5092762;28;20204;-71
2022/05/31 08:44:50;;;;;;;2.63;1.77;;;20.60;48.30;;;-142.21;54.88;112049.66;5091968;28;20234;-71
2022/05/31 08:47:36;;;;;;;3.27;1.70;;;20.80;47.80;;;-142.21;56.55;112049.66;5091829;28;20234;-71
2022/05/31 08:53:21;;;;;;;1.60;1.50;;;21.20;49.30;;;-142.21;54.77;112049.66;5080751;28;20323;-72
2022/05/31 08:58:48;;;;;;;2.23;1.40;;;21.40;47.60;;;-142.21;53.65;112049.66;5071757;28;20223;-72
2022/05/31 09:01:24;;;;;;;2.53;1.50;;;21.50;47.50;;;-142.21;52.37;112049.66;5072352;28;20204;-71
2022/05/31 09:03:57;;;;;;;3.03;2.10;;;21.50;46.80;;;-142.21;50.28;112049.66;5076482;28;20224;-72
2022/05/31 09:06:31;;;;;;;2.17;1.60;;;21.60;46.30;;;-142.21;49.68;112049.66;5075855;28;20264;-72
2022/05/31 09:09:10;;;;;;;1.90;1.70;;;21.70;45.90;;;-142.21;49.15;112049.66;5076165;28;20292;-72
2022/05/31 09:11:49;;;;;;;2.83;1.50;;;21.70;46.20;;;-142.21;48.37;112049.66;5075734;28;20660;-72
2022/05/31 09:14:26;;;;;;;3.10;1.73;;;21.70;45.30;;;-142.21;49.22;112049.66;5076296;28;20279;-72
2022/05/31 09:17:04;;;;;;;4.23;1.70;;;21.80;45.70;;;-142.21;46.85;112049.66;5075989;28;20208;-72
2022/05/31 09:19:43;;;;;;;2.77;1.50;;;21.80;44.70;;;-142.21;48.37;112049.66;5075217;28;20217;-71
2022/05/31 09:22:12;;;;;;;2.37;1.50;;;21.80;45.40;;;-142.21;46.94;112049.66;5087538;28;20780;-72
2022/05/31 09:24:44;;;;;;;4.00;1.63;;;21.80;45.10;;;-142.21;46.98;112049.66;5089918;28;20216;-71
2022/05/31 09:27:15;;;;;;;2.00;1.60;;;21.90;45.10;;;-142.21;48.02;112049.66;5075785;28;20282;-71
2022/05/31 09:30:02;;;;;;;2.17;1.70;;;22.00;45.60;;;-142.21;49.72;112049.66;5075845;28;20193;-71
2022/05/31 09:33:04;;;;;;;1.80;1.70;;;22.20;46.20;;;-142.21;47.62;112049.66;5041180;28;20200;-71
2022/05/31 09:35:56;;;;;;;3.83;1.90;;;22.40;45.00;;;-142.21;45.36;112049.66;5076701;28;20189;-72
2022/05/31 09:39:14;;;;;;;1.93;1.73;;;22.40;44.20;;;-142.21;46.16;112049.66;5064906;28;20205;-72
2022/05/31 09:41:50;;;;;;;3.20;1.70;;;22.40;44.70;;;-142.21;45.52;112049.66;5032856;28;20195;-71
2022/05/31 09:44:24;;;;;;;2.33;1.80;;;22.60;44.60;;;-142.21;44.47;112049.66;5000130;28;20210;-72
2022/05/31 09:46:58;;;;;;;2.00;1.80;;;22.80;44.20;;;-142.21;41.85;112049.66;5075570;28;20680;-72
2022/05/31 09:49:36;;;;;;;3.53;1.43;;;22.90;42.50;;;-142.21;41.50;112049.66;5094885;28;20196;-71
2022/05/31 09:52:10;;;;;;;1.90;1.80;;;22.90;42.90;;;-142.21;40.78;112049.66;5082198;28;20255;-71
2022/05/31 09:58:16;;;;;;;2.57;1.60;;;22.90;41.10;;;-142.21;38.85;112049.66;5070016;28;20266;-72
2022/05/31 10:01:02;;;;;;;1.63;1.50;;;23.00;40.90;;;-142.21;38.66;112049.66;5074743;28;20223;-71
2022/05/31 10:03:44;;;;;;;4.10;1.60;;;23.10;40.30;;;-142.21;37.68;112049.66;5074416;28;20225;-72
2022/05/31 10:06:20;;;;;;;2.43;1.70;;;23.00;39.20;;;-142.21;37.10;112049.66;5074589;28;20240;-71
2022/05/31 10:08:51;;;;;;;2.73;1.63;;;22.90;39.20;;;-142.21;37.17;112049.66;5075232;28;20258;-71
2022/05/31 10:11:29;;;;;;;6.10;1.53;;;23.00;39.70;;;-142.21;37.10;112049.66;5075228;28;20577;-71
2022/05/31 10:14:01;;;;;;;2.27;1.60;;;23.10;39.70;;;-142.21;38.61;112049.66;5078133;28;20189;-71
2022/05/31 10:16:31;;;;;;;1.63;1.43;;;23.20;40.60;;;-142.21;38.02;112049.66;5094606;28;20249;-71
2022/05/31 10:19:01;;;;;;;2.67;1.60;;;23.40;40.30;;;-142.21;39.03;112049.66;5059646;28;20552;-72
2022/05/31 10:21:38;;;;;;;1.40;1.30;;;23.50;40.90;;;-142.21;38.35;112049.66;5094142;28;20282;-72
2022/05/31 10:24:15;;;;;;;2.33;1.43;;;23.60;40.20;;;-142.21;37.53;112049.66;5093980;28;20191;-71
2022/05/31 10:26:45;;;;;;;1.97;1.53;;;23.70;39.40;;;-142.21;37.13;112049.66;5074102;28;20193;-73
2022/05/31 10:29:17;;;;;;;2.20;1.50;;;23.80;39.50;;;-142.21;39.39;112049.66;5039412;28;20599;-70
2022/05/31 10:31:47;;;;;;;1.73;1.50;;;23.90;40.90;;;-142.21;37.41;112049.66;5088327;28;20196;-71
2022/05/31 10:34:36;;;;;;;4.77;1.43;;;24.20;39.90;;;-142.21;36.91;112049.66;5095093;28;20290;-72